sensor_id;sensor_type;location;lat;lon;timestamp;temperature;humidity
212;DHT22;16228;48.800;9.002;2023-04-03T00:00:59;3.90;96.90
212;DHT22;16228;48.800;9.002;2023-04-03T00:03:26;4.00;96.90
212;DHT22;16228;48.800;9.002;2023-04-03T00:05:55;4.00;96.90
212;DHT22;16228;48.800;9.002;2023-04-03T00:08:22;4.00;96.90
212;DHT22;16228;48.800;9.002;2023-04-03T00:10:49;4.00;96.90
212;DHT22;16228;48.800;9.002;2023-04-03T00:13:16;4.00;96.90
212;DHT22;16228;48.800;9.002;2023-04-03T00:15:43;4.00;96.90
212;DHT22;16228;48.800;9.002;2023-04-03T00:18:10;4.00;96.90
212;DHT22;16228;48.800;9.002;2023-04-03T00:20:37;4.00;96.90
212;DHT22;16228;48.800;9.002;2023-04-03T00:23:06;4.00;96.90
212;DHT22;16228;48.800;9.002;2023-04-03T00:25:33;4.00;96.90
212;DHT22;16228;48.800;9.002;2023-04-03T00:28:00;4.00;96.90
212;DHT22;16228;48.800;9.002;2023-04-03T00:30:28;4.00;96.90
212;DHT22;16228;48.800;9.002;2023-04-03T00:32:55;3.90;96.90
212;DHT22;16228;48.800;9.002;2023-04-03T00:35:22;3.90;96.90
212;DHT22;16228;48.800;9.002;2023-04-03T00:37:51;3.90;96.90
212;DHT22;16228;48.800;9.002;2023-04-03T00:40:20;3.90;96.90
212;DHT22;16228;48.800;9.002;2023-04-03T00:42:49;3.90;96.90
212;DHT22;16228;48.800;9.002;2023-04-03T00:45:29;3.90;96.90
212;DHT22;16228;48.800;9.002;2023-04-03T00:47:57;3.90;96.90
212;DHT22;16228;48.800;9.002;2023-04-03T00:50:26;3.80;96.90
212;DHT22;16228;48.800;9.002;2023-04-03T00:52:54;3.80;96.90
212;DHT22;16228;48.800;9.002;2023-04-03T00:55:23;3.80;96.90
212;DHT22;16228;48.800;9.002;2023-04-03T00:57:51;3.80;96.90
212;DHT22;16228;48.800;9.002;2023-04-03T01:00:20;3.80;96.90
212;DHT22;16228;48.800;9.002;2023-04-03T01:02:48;3.80;96.90
212;DHT22;16228;48.800;9.002;2023-04-03T01:05:16;3.80;96.90
212;DHT22;16228;48.800;9.002;2023-04-03T01:07:45;3.80;96.90
212;DHT22;16228;48.800;9.002;2023-04-03T01:10:14;3.70;96.90
212;DHT22;16228;48.800;9.002;2023-04-03T01:12:44;3.70;96.90
212;DHT22;16228;48.800;9.002;2023-04-03T01:15:13;3.70;96.90
212;DHT22;16228;48.800;9.002;2023-04-03T01:17:42;3.60;96.90
212;DHT22;16228;48.800;9.002;2023-04-03T01:23:21;3.60;96.90
212;DHT22;16228;48.800;9.002;2023-04-03T01:25:52;3.60;96.90
212;DHT22;16228;48.800;9.002;2023-04-03T01:28:24;3.60;96.90
212;DHT22;16228;48.800;9.002;2023-04-03T01:30:56;3.60;96.90
212;DHT22;16228;48.800;9.002;2023-04-03T01:33:27;3.60;96.90
212;DHT22;16228;48.800;9.002;2023-04-03T01:35:54;3.60;96.90
212;DHT22;16228;48.800;9.002;2023-04-03T01:38:31;3.60;96.90
212;DHT22;16228;48.800;9.002;2023-04-03T01:40:58;3.60;96.90
212;DHT22;16228;48.800;9.002;2023-04-03T01:43:25;3.60;96.90
212;DHT22;16228;48.800;9.002;2023-04-03T01:45:52;3.60;96.90
212;DHT22;16228;48.800;9.002;2023-04-03T01:48:20;3.60;96.90
212;DHT22;16228;48.800;9.002;2023-04-03T01:50:48;3.70;96.90
212;DHT22;16228;48.800;9.002;2023-04-03T01:53:16;3.70;96.90
212;DHT22;16228;48.800;9.002;2023-04-03T01:55:43;3.70;96.90
212;DHT22;16228;48.800;9.002;2023-04-03T01:58:09;3.70;96.90
212;DHT22;16228;48.800;9.002;2023-04-03T02:00:37;3.70;96.90
212;DHT22;16228;48.800;9.002;2023-04-03T02:03:03;3.70;96.90
212;DHT22;16228;48.800;9.002;2023-04-03T02:05:31;3.60;96.90
212;DHT22;16228;48.800;9.002;2023-04-03T02:07:59;3.70;96.90
212;DHT22;16228;48.800;9.002;2023-04-03T02:10:26;3.60;96.90
212;DHT22;16228;48.800;9.002;2023-04-03T02:12:53;3.60;96.90
212;DHT22;16228;48.800;9.002;2023-04-03T02:15:20;3.60;96.90
212;DHT22;16228;48.800;9.002;2023-04-03T02:17:47;3.70;96.90
212;DHT22;16228;48.800;9.002;2023-04-03T02:20:14;3.70;96.90
212;DHT22;16228;48.800;9.002;2023-04-03T02:22:41;3.70;96.90
212;DHT22;16228;48.800;9.002;2023-04-03T02:25:10;3.70;96.90
212;DHT22;16228;48.800;9.002;2023-04-03T02:27:37;3.70;96.90
212;DHT22;16228;48.800;9.002;2023-04-03T02:30:05;3.80;96.90
212;DHT22;16228;48.800;9.002;2023-04-03T02:32:32;3.80;96.90
212;DHT22;16228;48.800;9.002;2023-04-03T02:34:59;3.80;96.90
212;DHT22;16228;48.800;9.002;2023-04-03T02:37:26;3.90;96.90
212;DHT22;16228;48.800;9.002;2023-04-03T02:39:53;3.90;96.90
212;DHT22;16228;48.800;9.002;2023-04-03T02:42:21;3.90;96.90
212;DHT22;16228;48.800;9.002;2023-04-03T02:44:48;3.80;96.90
212;DHT22;16228;48.800;9.002;2023-04-03T02:47:15;3.90;96.90
212;DHT22;16228;48.800;9.002;2023-04-03T02:49:42;3.90;96.90
212;DHT22;16228;48.800;9.002;2023-04-03T02:52:11;3.90;96.90
212;DHT22;16228;48.800;9.002;2023-04-03T02:54:38;3.80;96.90
212;DHT22;16228;48.800;9.002;2023-04-03T02:57:05;3.80;96.90
212;DHT22;16228;48.800;9.002;2023-04-03T02:59:35;3.90;96.90
212;DHT22;16228;48.800;9.002;2023-04-03T03:02:06;3.90;96.90
212;DHT22;16228;48.800;9.002;2023-04-03T03:04:33;3.90;96.90
212;DHT22;16228;48.800;9.002;2023-04-03T03:07:00;3.90;96.90
212;DHT22;16228;48.800;9.002;2023-04-03T03:09:27;3.90;96.90
212;DHT22;16228;48.800;9.002;2023-04-03T03:11:55;3.90;96.90
212;DHT22;16228;48.800;9.002;2023-04-03T03:14:22;3.90;96.90
212;DHT22;16228;48.800;9.002;2023-04-03T03:16:50;3.80;96.90
212;DHT22;16228;48.800;9.002;2023-04-03T03:19:17;3.80;96.90
212;DHT22;16228;48.800;9.002;2023-04-03T03:21:44;3.80;96.90
212;DHT22;16228;48.800;9.002;2023-04-03T03:24:11;3.80;96.90
212;DHT22;16228;48.800;9.002;2023-04-03T03:26:38;3.90;96.90
212;DHT22;16228;48.800;9.002;2023-04-03T03:29:05;3.80;96.90
212;DHT22;16228;48.800;9.002;2023-04-03T03:31:32;3.80;96.90
212;DHT22;16228;48.800;9.002;2023-04-03T03:34:00;3.80;96.90
212;DHT22;16228;48.800;9.002;2023-04-03T03:36:27;3.80;96.90
212;DHT22;16228;48.800;9.002;2023-04-03T03:38:54;3.80;96.90
212;DHT22;16228;48.800;9.002;2023-04-03T03:41:21;3.80;96.90
212;DHT22;16228;48.800;9.002;2023-04-03T03:43:48;3.80;96.90
212;DHT22;16228;48.800;9.002;2023-04-03T03:46:15;3.80;96.90
212;DHT22;16228;48.800;9.002;2023-04-03T03:48:42;3.80;96.90
212;DHT22;16228;48.800;9.002;2023-04-03T03:51:10;3.90;96.90
212;DHT22;16228;48.800;9.002;2023-04-03T03:53:37;3.80;96.90
212;DHT22;16228;48.800;9.002;2023-04-03T03:56:05;3.90;96.90
212;DHT22;16228;48.800;9.002;2023-04-03T03:58:32;3.90;96.90
212;DHT22;16228;48.800;9.002;2023-04-03T04:01:00;3.90;96.90
212;DHT22;16228;48.800;9.002;2023-04-03T04:03:28;3.90;96.90
212;DHT22;16228;48.800;9.002;2023-04-03T04:05:55;3.90;96.90
212;DHT22;16228;48.800;9.002;2023-04-03T04:08:23;3.90;96.90
212;DHT22;16228;48.800;9.002;2023-04-03T04:10:50;3.90;96.90
212;DHT22;16228;48.800;9.002;2023-04-03T04:13:17;3.90;96.90
212;DHT22;16228;48.800;9.002;2023-04-03T04:15:44;3.90;96.90
212;DHT22;16228;48.800;9.002;2023-04-03T04:18:11;3.90;96.90
212;DHT22;16228;48.800;9.002;2023-04-03T04:20:38;3.90;96.90
212;DHT22;16228;48.800;9.002;2023-04-03T04:23:05;4.00;96.90
212;DHT22;16228;48.800;9.002;2023-04-03T04:25:33;4.00;96.90
212;DHT22;16228;48.800;9.002;2023-04-03T04:28:00;4.00;96.90
212;DHT22;16228;48.800;9.002;2023-04-03T04:30:27;3.90;96.90
212;DHT22;16228;48.800;9.002;2023-04-03T04:32:54;3.90;96.90
212;DHT22;16228;48.800;9.002;2023-04-03T04:35:21;3.90;96.90
212;DHT22;16228;48.800;9.002;2023-04-03T04:37:48;4.00;96.90
212;DHT22;16228;48.800;9.002;2023-04-03T04:40:15;4.00;96.90
212;DHT22;16228;48.800;9.002;2023-04-03T04:42:44;4.00;96.90
212;DHT22;16228;48.800;9.002;2023-04-03T04:45:11;4.00;96.90
212;DHT22;16228;48.800;9.002;2023-04-03T04:47:38;4.00;96.90
212;DHT22;16228;48.800;9.002;2023-04-03T04:50:06;4.00;96.90
212;DHT22;16228;48.800;9.002;2023-04-03T04:52:33;3.90;96.90
212;DHT22;16228;48.800;9.002;2023-04-03T04:55:00;3.90;96.90
212;DHT22;16228;48.800;9.002;2023-04-03T04:57:27;3.90;96.90
212;DHT22;16228;48.800;9.002;2023-04-03T04:59:55;3.90;96.90
212;DHT22;16228;48.800;9.002;2023-04-03T05:02:22;3.90;96.90
212;DHT22;16228;48.800;9.002;2023-04-03T05:04:49;3.90;96.90
212;DHT22;16228;48.800;9.002;2023-04-03T05:07:17;3.90;96.90
212;DHT22;16228;48.800;9.002;2023-04-03T05:09:44;3.90;96.90
212;DHT22;16228;48.800;9.002;2023-04-03T05:12:11;4.00;96.90
212;DHT22;16228;48.800;9.002;2023-04-03T05:14:38;4.00;96.90
212;DHT22;16228;48.800;9.002;2023-04-03T05:17:06;4.00;96.90
212;DHT22;16228;48.800;9.002;2023-04-03T05:19:33;4.00;96.90
212;DHT22;16228;48.800;9.002;2023-04-03T05:22:00;4.00;96.90
212;DHT22;16228;48.800;9.002;2023-04-03T05:24:28;4.00;96.90
212;DHT22;16228;48.800;9.002;2023-04-03T05:26:55;4.00;96.90
212;DHT22;16228;48.800;9.002;2023-04-03T05:29:22;4.00;96.90
212;DHT22;16228;48.800;9.002;2023-04-03T05:31:49;4.00;96.90
212;DHT22;16228;48.800;9.002;2023-04-03T05:34:17;4.10;96.90
212;DHT22;16228;48.800;9.002;2023-04-03T05:36:45;4.10;96.90
212;DHT22;16228;48.800;9.002;2023-04-03T05:39:12;4.00;96.90
212;DHT22;16228;48.800;9.002;2023-04-03T05:41:39;4.00;96.90
212;DHT22;16228;48.800;9.002;2023-04-03T05:44:06;4.00;96.90
212;DHT22;16228;48.800;9.002;2023-04-03T05:46:33;4.00;96.90
212;DHT22;16228;48.800;9.002;2023-04-03T05:49:00;4.00;96.90
212;DHT22;16228;48.800;9.002;2023-04-03T05:51:31;4.10;96.90
212;DHT22;16228;48.800;9.002;2023-04-03T05:54:03;4.10;96.90
212;DHT22;16228;48.800;9.002;2023-04-03T05:56:32;4.10;96.90
212;DHT22;16228;48.800;9.002;2023-04-03T05:58:59;4.20;96.90
212;DHT22;16228;48.800;9.002;2023-04-03T06:01:26;4.20;96.90
212;DHT22;16228;48.800;9.002;2023-04-03T06:03:53;4.20;96.90
212;DHT22;16228;48.800;9.002;2023-04-03T06:06:21;4.20;96.90
212;DHT22;16228;48.800;9.002;2023-04-03T06:08:50;4.20;96.90
212;DHT22;16228;48.800;9.002;2023-04-03T06:11:17;4.20;96.90
212;DHT22;16228;48.800;9.002;2023-04-03T06:13:44;4.30;96.90
212;DHT22;16228;48.800;9.002;2023-04-03T06:16:12;4.30;96.90
212;DHT22;16228;48.800;9.002;2023-04-03T06:18:41;4.40;96.90
212;DHT22;16228;48.800;9.002;2023-04-03T06:21:08;4.40;96.90
212;DHT22;16228;48.800;9.002;2023-04-03T06:23:35;4.40;96.90
212;DHT22;16228;48.800;9.002;2023-04-03T06:26:03;4.50;96.90
212;DHT22;16228;48.800;9.002;2023-04-03T06:28:31;4.60;96.90
212;DHT22;16228;48.800;9.002;2023-04-03T06:30:58;4.50;96.90
212;DHT22;16228;48.800;9.002;2023-04-03T06:33:25;4.60;96.90
212;DHT22;16228;48.800;9.002;2023-04-03T06:35:57;4.50;96.90
212;DHT22;16228;48.800;9.002;2023-04-03T06:38:24;4.50;96.90
212;DHT22;16228;48.800;9.002;2023-04-03T06:40:51;4.50;96.90
212;DHT22;16228;48.800;9.002;2023-04-03T06:43:20;4.60;96.90
212;DHT22;16228;48.800;9.002;2023-04-03T06:45:47;4.70;96.90
212;DHT22;16228;48.800;9.002;2023-04-03T06:48:14;4.70;96.90
212;DHT22;16228;48.800;9.002;2023-04-03T06:50:41;4.70;96.90
212;DHT22;16228;48.800;9.002;2023-04-03T06:53:08;4.80;96.90
212;DHT22;16228;48.800;9.002;2023-04-03T06:55:35;4.90;96.90
212;DHT22;16228;48.800;9.002;2023-04-03T06:58:02;5.00;96.90
212;DHT22;16228;48.800;9.002;2023-04-03T07:00:31;5.10;96.90
212;DHT22;16228;48.800;9.002;2023-04-03T07:02:58;5.20;96.90
212;DHT22;16228;48.800;9.002;2023-04-03T07:05:25;5.30;96.90
212;DHT22;16228;48.800;9.002;2023-04-03T07:07:52;5.30;96.90
212;DHT22;16228;48.800;9.002;2023-04-03T07:10:19;5.30;96.90
212;DHT22;16228;48.800;9.002;2023-04-03T07:12:46;5.20;96.90
212;DHT22;16228;48.800;9.002;2023-04-03T07:15:13;5.10;96.90
212;DHT22;16228;48.800;9.002;2023-04-03T07:17:42;4.90;96.90
212;DHT22;16228;48.800;9.002;2023-04-03T07:20:09;4.80;96.90
212;DHT22;16228;48.800;9.002;2023-04-03T07:22:37;4.80;96.90
212;DHT22;16228;48.800;9.002;2023-04-03T07:25:05;4.90;96.90
212;DHT22;16228;48.800;9.002;2023-04-03T07:27:33;5.00;96.90
212;DHT22;16228;48.800;9.002;2023-04-03T07:30:00;5.20;96.90
212;DHT22;16228;48.800;9.002;2023-04-03T07:32:27;5.40;96.90
212;DHT22;16228;48.800;9.002;2023-04-03T07:34:56;5.50;96.90
212;DHT22;16228;48.800;9.002;2023-04-03T07:37:23;5.50;96.90
212;DHT22;16228;48.800;9.002;2023-04-03T07:39:50;5.80;96.90
212;DHT22;16228;48.800;9.002;2023-04-03T07:42:17;6.00;96.90
212;DHT22;16228;48.800;9.002;2023-04-03T07:44:44;6.00;96.90
212;DHT22;16228;48.800;9.002;2023-04-03T07:47:11;6.00;96.90
212;DHT22;16228;48.800;9.002;2023-04-03T07:49:39;5.90;96.90
212;DHT22;16228;48.800;9.002;2023-04-03T07:52:08;5.90;96.90
212;DHT22;16228;48.800;9.002;2023-04-03T07:54:35;5.90;96.90
212;DHT22;16228;48.800;9.002;2023-04-03T07:57:03;6.00;96.90
212;DHT22;16228;48.800;9.002;2023-04-03T07:59:30;6.00;96.90
212;DHT22;16228;48.800;9.002;2023-04-03T08:01:57;6.00;96.90
212;DHT22;16228;48.800;9.002;2023-04-03T08:04:24;6.10;96.90
212;DHT22;16228;48.800;9.002;2023-04-03T08:06:51;6.20;96.90
212;DHT22;16228;48.800;9.002;2023-04-03T08:09:20;6.10;96.90
212;DHT22;16228;48.800;9.002;2023-04-03T08:11:47;6.20;96.90
212;DHT22;16228;48.800;9.002;2023-04-03T08:14:14;6.10;96.90
212;DHT22;16228;48.800;9.002;2023-04-03T08:16:46;6.20;96.90
212;DHT22;16228;48.800;9.002;2023-04-03T08:19:13;6.20;96.90
212;DHT22;16228;48.800;9.002;2023-04-03T08:21:41;6.30;96.90
212;DHT22;16228;48.800;9.002;2023-04-03T08:24:08;6.30;96.90
212;DHT22;16228;48.800;9.002;2023-04-03T08:26:37;6.30;96.90
212;DHT22;16228;48.800;9.002;2023-04-03T08:29:04;6.30;96.90
212;DHT22;16228;48.800;9.002;2023-04-03T08:31:31;6.20;96.90
212;DHT22;16228;48.800;9.002;2023-04-03T08:33:58;6.10;96.90
212;DHT22;16228;48.800;9.002;2023-04-03T08:36:26;6.10;96.90
212;DHT22;16228;48.800;9.002;2023-04-03T08:38:54;6.10;96.90
212;DHT22;16228;48.800;9.002;2023-04-03T08:41:29;6.20;96.90
212;DHT22;16228;48.800;9.002;2023-04-03T08:44:04;6.10;96.90
212;DHT22;16228;48.800;9.002;2023-04-03T08:46:47;6.10;96.90
212;DHT22;16228;48.800;9.002;2023-04-03T08:49:22;6.20;96.90
212;DHT22;16228;48.800;9.002;2023-04-03T08:51:51;6.50;96.90
212;DHT22;16228;48.800;9.002;2023-04-03T08:54:26;7.00;96.90
212;DHT22;16228;48.800;9.002;2023-04-03T08:56:55;7.40;96.90
212;DHT22;16228;48.800;9.002;2023-04-03T08:59:28;7.60;96.90
212;DHT22;16228;48.800;9.002;2023-04-03T09:01:56;7.40;96.90
212;DHT22;16228;48.800;9.002;2023-04-03T09:04:26;7.20;96.90
212;DHT22;16228;48.800;9.002;2023-04-03T09:06:57;7.20;96.90
212;DHT22;16228;48.800;9.002;2023-04-03T09:09:31;7.20;96.90
212;DHT22;16228;48.800;9.002;2023-04-03T09:12:05;7.60;96.90
212;DHT22;16228;48.800;9.002;2023-04-03T09:14:39;8.20;96.90
212;DHT22;16228;48.800;9.002;2023-04-03T09:17:15;8.50;96.90
212;DHT22;16228;48.800;9.002;2023-04-03T09:19:51;8.40;96.90
212;DHT22;16228;48.800;9.002;2023-04-03T09:22:24;8.10;96.90
212;DHT22;16228;48.800;9.002;2023-04-03T09:24:57;7.90;96.90
212;DHT22;16228;48.800;9.002;2023-04-03T09:27:26;7.70;96.90
212;DHT22;16228;48.800;9.002;2023-04-03T09:29:55;7.60;96.90
212;DHT22;16228;48.800;9.002;2023-04-03T09:32:26;7.60;96.90
212;DHT22;16228;48.800;9.002;2023-04-03T09:34:55;7.80;96.90
212;DHT22;16228;48.800;9.002;2023-04-03T09:37:38;8.00;96.90
212;DHT22;16228;48.800;9.002;2023-04-03T09:40:27;8.20;96.90
212;DHT22;16228;48.800;9.002;2023-04-03T09:42:56;8.40;96.90
212;DHT22;16228;48.800;9.002;2023-04-03T09:45:27;8.40;96.90
212;DHT22;16228;48.800;9.002;2023-04-03T09:48:08;8.00;96.70
212;DHT22;16228;48.800;9.002;2023-04-03T09:50:36;7.70;96.90
212;DHT22;16228;48.800;9.002;2023-04-03T09:53:11;7.30;96.90
212;DHT22;16228;48.800;9.002;2023-04-03T09:55:52;7.30;96.90
212;DHT22;16228;48.800;9.002;2023-04-03T09:58:26;7.20;96.90
212;DHT22;16228;48.800;9.002;2023-04-03T10:00:56;7.10;96.90
212;DHT22;16228;48.800;9.002;2023-04-03T10:03:26;7.20;96.90
212;DHT22;16228;48.800;9.002;2023-04-03T10:05:54;7.30;96.90
212;DHT22;16228;48.800;9.002;2023-04-03T10:08:26;7.40;96.90
212;DHT22;16228;48.800;9.002;2023-04-03T10:11:09;7.30;95.40
212;DHT22;16228;48.800;9.002;2023-04-03T10:13:50;7.10;95.10
212;DHT22;16228;48.800;9.002;2023-04-03T10:16:20;7.10;95.70
212;DHT22;16228;48.800;9.002;2023-04-03T10:19:01;7.20;94.60
212;DHT22;16228;48.800;9.002;2023-04-03T10:21:35;7.10;94.10
212;DHT22;16228;48.800;9.002;2023-04-03T10:24:10;7.00;94.20
212;DHT22;16228;48.800;9.002;2023-04-03T10:26:45;6.90;95.60
212;DHT22;16228;48.800;9.002;2023-04-03T10:29:22;6.90;96.30
212;DHT22;16228;48.800;9.002;2023-04-03T10:31:59;7.00;95.00
212;DHT22;16228;48.800;9.002;2023-04-03T10:34:30;7.10;95.60
212;DHT22;16228;48.800;9.002;2023-04-03T10:37:09;7.10;96.40
212;DHT22;16228;48.800;9.002;2023-04-03T10:39:44;7.20;96.00
212;DHT22;16228;48.800;9.002;2023-04-03T10:42:18;7.30;93.60
212;DHT22;16228;48.800;9.002;2023-04-03T10:44:58;7.30;93.50
212;DHT22;16228;48.800;9.002;2023-04-03T10:47:34;7.50;93.70
212;DHT22;16228;48.800;9.002;2023-04-03T10:50:26;7.80;93.40
212;DHT22;16228;48.800;9.002;2023-04-03T10:53:00;7.80;92.00
212;DHT22;16228;48.800;9.002;2023-04-03T10:55:35;7.60;92.50
212;DHT22;16228;48.800;9.002;2023-04-03T10:58:05;7.50;92.10
212;DHT22;16228;48.800;9.002;2023-04-03T11:00:37;7.30;91.50
212;DHT22;16228;48.800;9.002;2023-04-03T11:03:12;7.20;92.40
212;DHT22;16228;48.800;9.002;2023-04-03T11:05:43;7.20;93.60
212;DHT22;16228;48.800;9.002;2023-04-03T11:08:16;7.10;92.00
212;DHT22;16228;48.800;9.002;2023-04-03T11:10:46;6.80;93.80
212;DHT22;16228;48.800;9.002;2023-04-03T11:13:18;6.70;93.60
212;DHT22;16228;48.800;9.002;2023-04-03T11:15:46;6.60;93.70
212;DHT22;16228;48.800;9.002;2023-04-03T11:18:18;6.60;93.80
212;DHT22;16228;48.800;9.002;2023-04-03T11:20:53;6.50;94.40
212;DHT22;16228;48.800;9.002;2023-04-03T11:23:25;6.40;93.80
212;DHT22;16228;48.800;9.002;2023-04-03T11:25:55;6.40;94.00
212;DHT22;16228;48.800;9.002;2023-04-03T11:28:25;6.60;94.00
212;DHT22;16228;48.800;9.002;2023-04-03T11:30:58;6.70;94.80
212;DHT22;16228;48.800;9.002;2023-04-03T11:33:37;6.90;95.50
212;DHT22;16228;48.800;9.002;2023-04-03T11:36:11;7.10;94.10
212;DHT22;16228;48.800;9.002;2023-04-03T11:38:43;7.20;93.90
212;DHT22;16228;48.800;9.002;2023-04-03T11:41:11;7.40;93.20
212;DHT22;16228;48.800;9.002;2023-04-03T11:43:42;7.50;92.90
212;DHT22;16228;48.800;9.002;2023-04-03T11:46:10;7.50;91.70
212;DHT22;16228;48.800;9.002;2023-04-03T11:48:50;7.50;92.30
212;DHT22;16228;48.800;9.002;2023-04-03T11:51:51;7.40;90.30
212;DHT22;16228;48.800;9.002;2023-04-03T11:54:42;7.20;91.50
212;DHT22;16228;48.800;9.002;2023-04-03T11:57:45;7.00;92.80
212;DHT22;16228;48.800;9.002;2023-04-03T12:12:28;7.30;92.60
212;DHT22;16228;48.800;9.002;2023-04-03T12:14:55;7.50;92.90
212;DHT22;16228;48.800;9.002;2023-04-03T12:17:25;7.60;90.20
212;DHT22;16228;48.800;9.002;2023-04-03T12:19:53;7.50;90.60
212;DHT22;16228;48.800;9.002;2023-04-03T12:22:21;7.50;91.10
212;DHT22;16228;48.800;9.002;2023-04-03T12:24:51;7.60;90.60
212;DHT22;16228;48.800;9.002;2023-04-03T12:27:23;7.90;91.30
212;DHT22;16228;48.800;9.002;2023-04-03T12:29:58;8.00;91.20
212;DHT22;16228;48.800;9.002;2023-04-03T12:32:40;8.20;90.70
212;DHT22;16228;48.800;9.002;2023-04-03T12:35:19;8.20;89.50
212;DHT22;16228;48.800;9.002;2023-04-03T12:38:24;8.30;89.00
212;DHT22;16228;48.800;9.002;2023-04-03T12:41:18;8.50;88.20
212;DHT22;16228;48.800;9.002;2023-04-03T12:44:04;8.40;85.50
212;DHT22;16228;48.800;9.002;2023-04-03T12:46:37;8.30;86.70
212;DHT22;16228;48.800;9.002;2023-04-03T12:49:18;8.50;87.70
212;DHT22;16228;48.800;9.002;2023-04-03T12:51:49;8.60;86.30
212;DHT22;16228;48.800;9.002;2023-04-03T12:54:19;8.70;84.30
212;DHT22;16228;48.800;9.002;2023-04-03T12:56:49;8.70;85.90
212;DHT22;16228;48.800;9.002;2023-04-03T12:59:18;8.80;85.10
212;DHT22;16228;48.800;9.002;2023-04-03T13:01:53;8.90;87.30
212;DHT22;16228;48.800;9.002;2023-04-03T13:04:21;9.00;85.30
212;DHT22;16228;48.800;9.002;2023-04-03T13:06:49;9.10;86.30
212;DHT22;16228;48.800;9.002;2023-04-03T13:09:21;9.00;83.60
212;DHT22;16228;48.800;9.002;2023-04-03T13:11:51;8.80;84.90
212;DHT22;16228;48.800;9.002;2023-04-03T13:14:23;8.50;83.50
212;DHT22;16228;48.800;9.002;2023-04-03T13:16:55;8.20;85.90
212;DHT22;16228;48.800;9.002;2023-04-03T13:19:23;8.20;86.10
212;DHT22;16228;48.800;9.002;2023-04-03T13:21:56;8.10;86.60
212;DHT22;16228;48.800;9.002;2023-04-03T13:24:26;8.10;88.10
212;DHT22;16228;48.800;9.002;2023-04-03T13:26:56;8.10;88.90
212;DHT22;16228;48.800;9.002;2023-04-03T13:29:27;8.10;87.60
212;DHT22;16228;48.800;9.002;2023-04-03T13:31:56;8.00;87.40
212;DHT22;16228;48.800;9.002;2023-04-03T13:34:26;8.10;87.40
212;DHT22;16228;48.800;9.002;2023-04-03T13:36:58;8.20;87.60
212;DHT22;16228;48.800;9.002;2023-04-03T13:39:28;8.40;86.00
212;DHT22;16228;48.800;9.002;2023-04-03T13:41:58;8.60;85.30
212;DHT22;16228;48.800;9.002;2023-04-03T13:44:33;8.60;86.20
212;DHT22;16228;48.800;9.002;2023-04-03T13:47:15;8.60;85.60
212;DHT22;16228;48.800;9.002;2023-04-03T13:49:44;8.50;85.70
212;DHT22;16228;48.800;9.002;2023-04-03T13:52:22;8.40;86.00
212;DHT22;16228;48.800;9.002;2023-04-03T13:54:53;8.20;86.50
212;DHT22;16228;48.800;9.002;2023-04-03T13:57:22;8.10;86.20
212;DHT22;16228;48.800;9.002;2023-04-03T13:59:49;8.10;85.90
212;DHT22;16228;48.800;9.002;2023-04-03T14:02:20;8.20;86.70
212;DHT22;16228;48.800;9.002;2023-04-03T14:04:52;8.40;85.50
212;DHT22;16228;48.800;9.002;2023-04-03T14:07:22;8.50;83.40
212;DHT22;16228;48.800;9.002;2023-04-03T14:09:49;8.80;85.80
212;DHT22;16228;48.800;9.002;2023-04-03T14:12:18;8.80;83.20
212;DHT22;16228;48.800;9.002;2023-04-03T14:14:49;8.80;82.60
212;DHT22;16228;48.800;9.002;2023-04-03T14:17:17;8.60;82.50
212;DHT22;16228;48.800;9.002;2023-04-03T14:19:45;8.60;83.20
212;DHT22;16228;48.800;9.002;2023-04-03T14:22:16;8.50;83.50
212;DHT22;16228;48.800;9.002;2023-04-03T14:24:43;8.40;84.80
212;DHT22;16228;48.800;9.002;2023-04-03T14:27:17;8.40;85.00
212;DHT22;16228;48.800;9.002;2023-04-03T14:29:44;8.40;85.50
212;DHT22;16228;48.800;9.002;2023-04-03T14:32:14;8.40;85.70
212;DHT22;16228;48.800;9.002;2023-04-03T14:34:43;8.40;85.30
212;DHT22;16228;48.800;9.002;2023-04-03T14:37:12;8.30;84.40
212;DHT22;16228;48.800;9.002;2023-04-03T14:39:40;8.40;86.50
212;DHT22;16228;48.800;9.002;2023-04-03T14:42:12;8.20;84.20
212;DHT22;16228;48.800;9.002;2023-04-03T14:44:39;8.20;84.70
212;DHT22;16228;48.800;9.002;2023-04-03T14:47:10;8.20;85.20
212;DHT22;16228;48.800;9.002;2023-04-03T14:49:39;8.00;84.30
212;DHT22;16228;48.800;9.002;2023-04-03T14:52:06;7.90;85.10
212;DHT22;16228;48.800;9.002;2023-04-03T14:54:33;7.70;85.20
212;DHT22;16228;48.800;9.002;2023-04-03T14:57:01;7.80;86.20
212;DHT22;16228;48.800;9.002;2023-04-03T14:59:29;7.80;84.40
212;DHT22;16228;48.800;9.002;2023-04-03T15:01:57;7.80;83.40
212;DHT22;16228;48.800;9.002;2023-04-03T15:04:24;7.80;84.80
212;DHT22;16228;48.800;9.002;2023-04-03T15:06:52;7.80;84.20
212;DHT22;16228;48.800;9.002;2023-04-03T15:09:21;7.80;85.20
212;DHT22;16228;48.800;9.002;2023-04-03T15:11:50;7.80;84.50
212;DHT22;16228;48.800;9.002;2023-04-03T15:14:17;8.00;85.10
212;DHT22;16228;48.800;9.002;2023-04-03T15:16:44;8.50;85.80
212;DHT22;16228;48.800;9.002;2023-04-03T15:19:12;8.90;85.40
212;DHT22;16228;48.800;9.002;2023-04-03T15:21:39;9.50;82.30
212;DHT22;16228;48.800;9.002;2023-04-03T15:24:09;10.00;80.30
212;DHT22;16228;48.800;9.002;2023-04-03T15:26:37;9.80;78.10
212;DHT22;16228;48.800;9.002;2023-04-03T15:29:04;9.40;79.10
212;DHT22;16228;48.800;9.002;2023-04-03T15:31:31;8.90;80.60
212;DHT22;16228;48.800;9.002;2023-04-03T15:33:58;8.60;80.10
212;DHT22;16228;48.800;9.002;2023-04-03T15:36:25;8.30;80.10
212;DHT22;16228;48.800;9.002;2023-04-03T15:38:53;8.10;80.70
212;DHT22;16228;48.800;9.002;2023-04-03T15:41:21;8.20;81.90
212;DHT22;16228;48.800;9.002;2023-04-03T15:43:48;8.30;82.20
212;DHT22;16228;48.800;9.002;2023-04-03T15:46:15;8.30;83.00
212;DHT22;16228;48.800;9.002;2023-04-03T15:48:42;8.30;82.40
212;DHT22;16228;48.800;9.002;2023-04-03T15:51:10;8.30;82.20
212;DHT22;16228;48.800;9.002;2023-04-03T15:53:37;8.30;81.40
212;DHT22;16228;48.800;9.002;2023-04-03T15:56:04;8.20;82.80
212;DHT22;16228;48.800;9.002;2023-04-03T15:58:35;8.00;82.90
212;DHT22;16228;48.800;9.002;2023-04-03T16:01:02;7.60;83.30
212;DHT22;16228;48.800;9.002;2023-04-03T16:03:29;7.30;84.10
212;DHT22;16228;48.800;9.002;2023-04-03T16:05:57;7.10;84.90
212;DHT22;16228;48.800;9.002;2023-04-03T16:08:24;6.90;86.60
212;DHT22;16228;48.800;9.002;2023-04-03T16:10:51;6.70;86.00
212;DHT22;16228;48.800;9.002;2023-04-03T16:13:18;6.60;85.60
212;DHT22;16228;48.800;9.002;2023-04-03T16:15:46;6.50;86.70
212;DHT22;16228;48.800;9.002;2023-04-03T16:18:14;6.50;87.40
212;DHT22;16228;48.800;9.002;2023-04-03T16:20:42;6.50;86.80
212;DHT22;16228;48.800;9.002;2023-04-03T16:23:09;6.50;86.40
212;DHT22;16228;48.800;9.002;2023-04-03T16:25:36;6.50;85.80
212;DHT22;16228;48.800;9.002;2023-04-03T16:28:03;6.50;85.60
212;DHT22;16228;48.800;9.002;2023-04-03T16:30:30;6.60;85.60
212;DHT22;16228;48.800;9.002;2023-04-03T16:32:59;6.70;86.50
212;DHT22;16228;48.800;9.002;2023-04-03T16:35:26;6.80;85.80
212;DHT22;16228;48.800;9.002;2023-04-03T16:37:53;6.80;86.60
212;DHT22;16228;48.800;9.002;2023-04-03T16:40:20;7.00;86.10
212;DHT22;16228;48.800;9.002;2023-04-03T16:42:47;7.10;85.00
212;DHT22;16228;48.800;9.002;2023-04-03T16:45:14;7.20;84.90
212;DHT22;16228;48.800;9.002;2023-04-03T16:47:41;7.10;85.70